Capitol Logistics 228


PANC
Ted Stevens Anchorage International Airport
Anchorage, Alaska, US
KSEA
Seattle-Tacoma International Airport
Seattle, Washington, US

Route Details

Aircraft Information
Primary: Boeing 767-300BDSF
Backup: Not Available
Route Data
Distance: 1257nm
Sched. Duration: 3h 29m
Avg. Duration: 2h 83m (-47m)
Times Flown: 15
Recm'd Route: NOEND4 NOEND LAIRE BKA DUGGS YYJ MARNR7
Planned Altitude: 33,000ft
Origin Wx: PANC 282053Z 33004KT 10SM FEW045 M09/M16 A2991 RMK AO2 SLP134 T10941161 51025 $
Dest. Wx: KSEA 282120Z 21011KT 10SM FEW005 SCT013 BKN250 08/05 A2996 RMK AO2 T00830050
Notes:

Financial History
Total Freight: 2,075,717lbs
Average Load: 138,381lbs/flt
Fuel Used: 760,526lbs
Avg. Fuel Used: 50,702lbs/flt
Fuel Expense: $943,654
Avg. Fuel Expense: $62,910
Avg. Fuel Cost: $1.24/lbs
Total Gross Income: $2,675,364
Pilot Pay: $3,065
Total Expenses: $289,719
Total Revenue: $1,431,935
Average Revenue: $178,357.60